sensor_id;sensor_type;location;lat;lon;timestamp;P1;durP1;ratioP1;P2;durP2;ratioP2
21110;SDS011;10713;51.912;4.494;2022-07-10T00:00:14;5.00;;;2.00;;
21110;SDS011;10713;51.912;4.494;2022-07-10T00:02:42;10.55;;;2.20;;
21110;SDS011;10713;51.912;4.494;2022-07-10T00:05:08;6.55;;;2.35;;
21110;SDS011;10713;51.912;4.494;2022-07-10T00:07:35;7.85;;;2.25;;
21110;SDS011;10713;51.912;4.494;2022-07-10T00:10:00;7.13;;;2.25;;
21110;SDS011;10713;51.912;4.494;2022-07-10T00:12:27;5.00;;;2.10;;
21110;SDS011;10713;51.912;4.494;2022-07-10T00:14:52;6.82;;;1.92;;
21110;SDS011;10713;51.912;4.494;2022-07-10T00:17:18;4.20;;;2.10;;
21110;SDS011;10713;51.912;4.494;2022-07-10T00:19:43;7.72;;;2.08;;
21110;SDS011;10713;51.912;4.494;2022-07-10T00:22:08;6.88;;;2.20;;
21110;SDS011;10713;51.912;4.494;2022-07-10T00:24:34;6.78;;;2.20;;
21110;SDS011;10713;51.912;4.494;2022-07-10T00:26:59;6.82;;;1.95;;
21110;SDS011;10713;51.912;4.494;2022-07-10T00:29:25;7.13;;;1.90;;
21110;SDS011;10713;51.912;4.494;2022-07-10T00:31:50;6.38;;;2.08;;
21110;SDS011;10713;51.912;4.494;2022-07-10T00:34:15;5.88;;;2.05;;
21110;SDS011;10713;51.912;4.494;2022-07-10T00:36:41;7.85;;;1.90;;
21110;SDS011;10713;51.912;4.494;2022-07-10T00:39:06;4.05;;;1.70;;
21110;SDS011;10713;51.912;4.494;2022-07-10T00:41:32;3.38;;;1.50;;
21110;SDS011;10713;51.912;4.494;2022-07-10T00:44:00;6.22;;;1.85;;
21110;SDS011;10713;51.912;4.494;2022-07-10T00:46:27;6.72;;;2.03;;
21110;SDS011;10713;51.912;4.494;2022-07-10T00:48:54;5.45;;;1.88;;
21110;SDS011;10713;51.912;4.494;2022-07-10T00:51:21;7.07;;;1.52;;
21110;SDS011;10713;51.912;4.494;2022-07-10T00:53:48;3.83;;;1.55;;
21110;SDS011;10713;51.912;4.494;2022-07-10T00:56:15;4.80;;;1.65;;
21110;SDS011;10713;51.912;4.494;2022-07-10T00:58:46;12.43;;;1.60;;
21110;SDS011;10713;51.912;4.494;2022-07-10T01:01:12;4.10;;;1.60;;
21110;SDS011;10713;51.912;4.494;2022-07-10T01:03:38;4.82;;;1.63;;
21110;SDS011;10713;51.912;4.494;2022-07-10T01:06:04;3.85;;;1.50;;
21110;SDS011;10713;51.912;4.494;2022-07-10T01:08:29;6.07;;;1.60;;
21110;SDS011;10713;51.912;4.494;2022-07-10T01:10:55;5.97;;;1.75;;
21110;SDS011;10713;51.912;4.494;2022-07-10T01:13:21;4.47;;;1.58;;
21110;SDS011;10713;51.912;4.494;2022-07-10T01:15:46;5.82;;;1.90;;
21110;SDS011;10713;51.912;4.494;2022-07-10T01:18:13;5.28;;;1.77;;
21110;SDS011;10713;51.912;4.494;2022-07-10T01:20:39;4.65;;;1.40;;
21110;SDS011;10713;51.912;4.494;2022-07-10T01:23:04;5.05;;;1.60;;
21110;SDS011;10713;51.912;4.494;2022-07-10T01:25:30;6.18;;;2.00;;
21110;SDS011;10713;51.912;4.494;2022-07-10T01:27:55;6.03;;;1.80;;
21110;SDS011;10713;51.912;4.494;2022-07-10T01:30:21;6.18;;;1.65;;
21110;SDS011;10713;51.912;4.494;2022-07-10T01:32:46;4.65;;;1.42;;
21110;SDS011;10713;51.912;4.494;2022-07-10T01:35:12;7.40;;;1.73;;
21110;SDS011;10713;51.912;4.494;2022-07-10T01:37:39;5.13;;;1.40;;
21110;SDS011;10713;51.912;4.494;2022-07-10T01:40:05;6.82;;;1.52;;
21110;SDS011;10713;51.912;4.494;2022-07-10T01:42:31;3.53;;;1.38;;
21110;SDS011;10713;51.912;4.494;2022-07-10T01:44:57;6.82;;;1.48;;
21110;SDS011;10713;51.912;4.494;2022-07-10T01:47:22;3.45;;;1.35;;
21110;SDS011;10713;51.912;4.494;2022-07-10T01:49:52;3.85;;;1.42;;
21110;SDS011;10713;51.912;4.494;2022-07-10T01:52:19;6.25;;;1.55;;
21110;SDS011;10713;51.912;4.494;2022-07-10T01:54:45;5.53;;;1.60;;
21110;SDS011;10713;51.912;4.494;2022-07-10T01:57:11;5.80;;;1.48;;
21110;SDS011;10713;51.912;4.494;2022-07-10T01:59:36;5.00;;;1.30;;
21110;SDS011;10713;51.912;4.494;2022-07-10T02:02:02;5.60;;;1.65;;
21110;SDS011;10713;51.912;4.494;2022-07-10T02:04:27;7.78;;;1.70;;
21110;SDS011;10713;51.912;4.494;2022-07-10T02:09:37;10.07;;;1.85;;
21110;SDS011;10713;51.912;4.494;2022-07-10T02:12:07;3.95;;;1.60;;
21110;SDS011;10713;51.912;4.494;2022-07-10T02:14:34;11.93;;;1.90;;
21110;SDS011;10713;51.912;4.494;2022-07-10T02:17:00;3.92;;;1.58;;
21110;SDS011;10713;51.912;4.494;2022-07-10T02:19:25;8.13;;;1.92;;
21110;SDS011;10713;51.912;4.494;2022-07-10T02:21:51;9.18;;;1.63;;
21110;SDS011;10713;51.912;4.494;2022-07-10T02:24:17;4.22;;;1.55;;
21110;SDS011;10713;51.912;4.494;2022-07-10T02:26:43;4.63;;;1.75;;
21110;SDS011;10713;51.912;4.494;2022-07-10T02:29:08;4.53;;;1.65;;
21110;SDS011;10713;51.912;4.494;2022-07-10T02:31:34;3.03;;;1.13;;
21110;SDS011;10713;51.912;4.494;2022-07-10T02:34:02;5.65;;;1.60;;
21110;SDS011;10713;51.912;4.494;2022-07-10T02:36:28;4.13;;;1.80;;
21110;SDS011;10713;51.912;4.494;2022-07-10T02:38:54;2.85;;;1.42;;
21110;SDS011;10713;51.912;4.494;2022-07-10T02:41:19;8.02;;;1.92;;
21110;SDS011;10713;51.912;4.494;2022-07-10T02:43:44;5.35;;;1.80;;
21110;SDS011;10713;51.912;4.494;2022-07-10T02:46:10;4.32;;;1.50;;
21110;SDS011;10713;51.912;4.494;2022-07-10T02:48:35;6.85;;;1.95;;
21110;SDS011;10713;51.912;4.494;2022-07-10T02:51:01;4.72;;;1.80;;
21110;SDS011;10713;51.912;4.494;2022-07-10T02:53:27;4.28;;;1.80;;
21110;SDS011;10713;51.912;4.494;2022-07-10T02:55:52;4.50;;;1.85;;
21110;SDS011;10713;51.912;4.494;2022-07-10T02:58:18;6.47;;;1.70;;
21110;SDS011;10713;51.912;4.494;2022-07-10T03:00:44;8.13;;;1.85;;
21110;SDS011;10713;51.912;4.494;2022-07-10T03:03:10;10.95;;;2.08;;
21110;SDS011;10713;51.912;4.494;2022-07-10T03:05:35;7.80;;;1.90;;
21110;SDS011;10713;51.912;4.494;2022-07-10T03:08:01;5.40;;;1.70;;
21110;SDS011;10713;51.912;4.494;2022-07-10T03:10:26;4.80;;;1.83;;
21110;SDS011;10713;51.912;4.494;2022-07-10T03:12:51;10.20;;;1.90;;
21110;SDS011;10713;51.912;4.494;2022-07-10T03:15:17;4.35;;;1.77;;
21110;SDS011;10713;51.912;4.494;2022-07-10T03:17:42;7.50;;;2.03;;
21110;SDS011;10713;51.912;4.494;2022-07-10T03:20:08;6.38;;;1.88;;
21110;SDS011;10713;51.912;4.494;2022-07-10T03:22:34;7.78;;;1.80;;
21110;SDS011;10713;51.912;4.494;2022-07-10T03:25:00;4.63;;;1.40;;
21110;SDS011;10713;51.912;4.494;2022-07-10T03:27:25;4.60;;;1.80;;
21110;SDS011;10713;51.912;4.494;2022-07-10T03:29:51;5.88;;;1.40;;
21110;SDS011;10713;51.912;4.494;2022-07-10T03:32:16;6.70;;;1.92;;
21110;SDS011;10713;51.912;4.494;2022-07-10T03:34:41;9.70;;;1.83;;
21110;SDS011;10713;51.912;4.494;2022-07-10T03:37:07;10.82;;;2.03;;
21110;SDS011;10713;51.912;4.494;2022-07-10T03:39:33;6.03;;;1.67;;
21110;SDS011;10713;51.912;4.494;2022-07-10T03:41:59;4.95;;;1.88;;
21110;SDS011;10713;51.912;4.494;2022-07-10T03:44:24;8.13;;;1.83;;
21110;SDS011;10713;51.912;4.494;2022-07-10T03:46:50;4.93;;;1.40;;
21110;SDS011;10713;51.912;4.494;2022-07-10T03:49:15;6.72;;;1.60;;
21110;SDS011;10713;51.912;4.494;2022-07-10T03:51:42;8.20;;;2.17;;
21110;SDS011;10713;51.912;4.494;2022-07-10T03:54:07;5.32;;;1.60;;
21110;SDS011;10713;51.912;4.494;2022-07-10T03:56:32;5.78;;;1.75;;
21110;SDS011;10713;51.912;4.494;2022-07-10T03:59:16;4.50;;;1.52;;
21110;SDS011;10713;51.912;4.494;2022-07-10T04:01:41;3.95;;;1.40;;
21110;SDS011;10713;51.912;4.494;2022-07-10T04:04:07;7.68;;;1.77;;
21110;SDS011;10713;51.912;4.494;2022-07-10T04:06:32;5.45;;;1.70;;
21110;SDS011;10713;51.912;4.494;2022-07-10T04:08:58;5.15;;;1.42;;
21110;SDS011;10713;51.912;4.494;2022-07-10T04:11:23;5.97;;;1.40;;
21110;SDS011;10713;51.912;4.494;2022-07-10T04:13:48;5.05;;;1.67;;
21110;SDS011;10713;51.912;4.494;2022-07-10T04:16:14;5.50;;;1.67;;
21110;SDS011;10713;51.912;4.494;2022-07-10T04:18:39;7.40;;;1.83;;
21110;SDS011;10713;51.912;4.494;2022-07-10T04:21:05;8.82;;;2.03;;
21110;SDS011;10713;51.912;4.494;2022-07-10T04:23:32;7.57;;;2.35;;
21110;SDS011;10713;51.912;4.494;2022-07-10T04:25:57;6.45;;;1.55;;
21110;SDS011;10713;51.912;4.494;2022-07-10T04:28:23;11.38;;;2.30;;
21110;SDS011;10713;51.912;4.494;2022-07-10T04:30:48;6.95;;;1.90;;
21110;SDS011;10713;51.912;4.494;2022-07-10T04:33:14;8.27;;;1.80;;
21110;SDS011;10713;51.912;4.494;2022-07-10T04:35:40;8.65;;;1.85;;
21110;SDS011;10713;51.912;4.494;2022-07-10T04:38:06;6.53;;;1.60;;
21110;SDS011;10713;51.912;4.494;2022-07-10T04:40:31;5.85;;;1.80;;
21110;SDS011;10713;51.912;4.494;2022-07-10T04:42:56;7.78;;;2.13;;
21110;SDS011;10713;51.912;4.494;2022-07-10T04:45:22;3.78;;;1.50;;
21110;SDS011;10713;51.912;4.494;2022-07-10T04:47:48;9.05;;;1.85;;
21110;SDS011;10713;51.912;4.494;2022-07-10T04:50:13;6.93;;;1.75;;
21110;SDS011;10713;51.912;4.494;2022-07-10T04:52:39;6.10;;;1.60;;
21110;SDS011;10713;51.912;4.494;2022-07-10T04:55:04;4.13;;;1.60;;
21110;SDS011;10713;51.912;4.494;2022-07-10T04:57:30;4.40;;;1.50;;
21110;SDS011;10713;51.912;4.494;2022-07-10T04:59:55;5.43;;;2.20;;
21110;SDS011;10713;51.912;4.494;2022-07-10T05:02:21;5.35;;;1.60;;
21110;SDS011;10713;51.912;4.494;2022-07-10T05:04:47;9.48;;;1.83;;
21110;SDS011;10713;51.912;4.494;2022-07-10T05:07:13;5.28;;;1.45;;
21110;SDS011;10713;51.912;4.494;2022-07-10T05:09:39;7.68;;;1.85;;
21110;SDS011;10713;51.912;4.494;2022-07-10T05:12:05;6.03;;;1.40;;
21110;SDS011;10713;51.912;4.494;2022-07-10T05:14:31;6.68;;;1.77;;
21110;SDS011;10713;51.912;4.494;2022-07-10T05:16:56;3.40;;;1.42;;
21110;SDS011;10713;51.912;4.494;2022-07-10T05:19:22;5.50;;;1.60;;
21110;SDS011;10713;51.912;4.494;2022-07-10T05:21:47;8.13;;;1.50;;
21110;SDS011;10713;51.912;4.494;2022-07-10T05:24:12;2.72;;;1.50;;
21110;SDS011;10713;51.912;4.494;2022-07-10T05:26:38;10.93;;;1.67;;
21110;SDS011;10713;51.912;4.494;2022-07-10T05:29:03;7.60;;;1.60;;
21110;SDS011;10713;51.912;4.494;2022-07-10T05:31:28;9.43;;;1.90;;
21110;SDS011;10713;51.912;4.494;2022-07-10T05:33:54;5.47;;;1.60;;
21110;SDS011;10713;51.912;4.494;2022-07-10T05:36:19;6.10;;;1.50;;
21110;SDS011;10713;51.912;4.494;2022-07-10T05:38:44;5.40;;;1.65;;
21110;SDS011;10713;51.912;4.494;2022-07-10T05:41:10;7.82;;;1.60;;
21110;SDS011;10713;51.912;4.494;2022-07-10T05:43:35;6.10;;;1.70;;
21110;SDS011;10713;51.912;4.494;2022-07-10T05:46:01;7.78;;;1.80;;
21110;SDS011;10713;51.912;4.494;2022-07-10T05:48:26;3.67;;;1.48;;
21110;SDS011;10713;51.912;4.494;2022-07-10T05:50:51;3.47;;;1.40;;
21110;SDS011;10713;51.912;4.494;2022-07-10T05:53:17;2.75;;;1.48;;
21110;SDS011;10713;51.912;4.494;2022-07-10T05:55:44;4.50;;;1.50;;
21110;SDS011;10713;51.912;4.494;2022-07-10T05:58:11;6.25;;;1.50;;
21110;SDS011;10713;51.912;4.494;2022-07-10T06:00:37;4.15;;;1.58;;
21110;SDS011;10713;51.912;4.494;2022-07-10T06:03:03;6.28;;;1.38;;
21110;SDS011;10713;51.912;4.494;2022-07-10T06:05:28;6.85;;;1.40;;
21110;SDS011;10713;51.912;4.494;2022-07-10T06:07:53;7.78;;;1.73;;
21110;SDS011;10713;51.912;4.494;2022-07-10T06:10:19;3.72;;;1.75;;
21110;SDS011;10713;51.912;4.494;2022-07-10T06:12:44;4.60;;;1.55;;
21110;SDS011;10713;51.912;4.494;2022-07-10T06:15:10;3.38;;;1.33;;
21110;SDS011;10713;51.912;4.494;2022-07-10T06:17:35;6.50;;;1.30;;
21110;SDS011;10713;51.912;4.494;2022-07-10T06:20:01;5.80;;;1.50;;
21110;SDS011;10713;51.912;4.494;2022-07-10T06:22:27;4.45;;;1.33;;
21110;SDS011;10713;51.912;4.494;2022-07-10T06:24:55;2.83;;;1.10;;
21110;SDS011;10713;51.912;4.494;2022-07-10T06:27:21;6.35;;;1.40;;
21110;SDS011;10713;51.912;4.494;2022-07-10T06:29:47;6.35;;;1.75;;
21110;SDS011;10713;51.912;4.494;2022-07-10T06:32:12;3.25;;;1.55;;
21110;SDS011;10713;51.912;4.494;2022-07-10T06:34:37;7.13;;;1.50;;
21110;SDS011;10713;51.912;4.494;2022-07-10T06:37:03;5.55;;;1.77;;
21110;SDS011;10713;51.912;4.494;2022-07-10T06:39:31;4.90;;;1.73;;
21110;SDS011;10713;51.912;4.494;2022-07-10T06:42:03;5.22;;;1.60;;
21110;SDS011;10713;51.912;4.494;2022-07-10T06:44:30;5.43;;;1.55;;
21110;SDS011;10713;51.912;4.494;2022-07-10T06:46:55;8.30;;;1.50;;
21110;SDS011;10713;51.912;4.494;2022-07-10T06:49:40;6.85;;;1.60;;
21110;SDS011;10713;51.912;4.494;2022-07-10T06:52:05;3.58;;;1.60;;
21110;SDS011;10713;51.912;4.494;2022-07-10T06:54:31;7.10;;;2.08;;
21110;SDS011;10713;51.912;4.494;2022-07-10T06:56:57;7.15;;;2.35;;
21110;SDS011;10713;51.912;4.494;2022-07-10T06:59:23;5.50;;;1.67;;
21110;SDS011;10713;51.912;4.494;2022-07-10T07:01:49;5.53;;;1.58;;
21110;SDS011;10713;51.912;4.494;2022-07-10T07:04:14;3.17;;;1.40;;
21110;SDS011;10713;51.912;4.494;2022-07-10T07:06:39;5.20;;;1.30;;
21110;SDS011;10713;51.912;4.494;2022-07-10T07:09:05;5.20;;;1.42;;
21110;SDS011;10713;51.912;4.494;2022-07-10T07:11:30;5.30;;;1.58;;
21110;SDS011;10713;51.912;4.494;2022-07-10T07:13:56;4.35;;;1.42;;
21110;SDS011;10713;51.912;4.494;2022-07-10T07:16:21;5.47;;;1.52;;
21110;SDS011;10713;51.912;4.494;2022-07-10T07:18:52;6.78;;;1.38;;
21110;SDS011;10713;51.912;4.494;2022-07-10T07:21:20;6.15;;;1.40;;
21110;SDS011;10713;51.912;4.494;2022-07-10T07:24:04;3.67;;;1.33;;
21110;SDS011;10713;51.912;4.494;2022-07-10T07:26:30;4.47;;;1.45;;
21110;SDS011;10713;51.912;4.494;2022-07-10T07:28:55;4.45;;;1.55;;
21110;SDS011;10713;51.912;4.494;2022-07-10T07:31:21;6.45;;;1.40;;
21110;SDS011;10713;51.912;4.494;2022-07-10T07:33:46;3.67;;;1.50;;
21110;SDS011;10713;51.912;4.494;2022-07-10T07:36:12;3.17;;;1.40;;
21110;SDS011;10713;51.912;4.494;2022-07-10T07:38:37;3.17;;;1.15;;
21110;SDS011;10713;51.912;4.494;2022-07-10T07:41:03;2.63;;;1.10;;
21110;SDS011;10713;51.912;4.494;2022-07-10T07:43:28;4.85;;;1.70;;
21110;SDS011;10713;51.912;4.494;2022-07-10T07:45:53;4.40;;;1.50;;
21110;SDS011;10713;51.912;4.494;2022-07-10T07:48:19;4.97;;;1.65;;
21110;SDS011;10713;51.912;4.494;2022-07-10T07:50:44;4.53;;;1.40;;
21110;SDS011;10713;51.912;4.494;2022-07-10T07:53:10;8.45;;;1.50;;
21110;SDS011;10713;51.912;4.494;2022-07-10T07:55:35;3.15;;;1.40;;
21110;SDS011;10713;51.912;4.494;2022-07-10T07:58:01;3.53;;;1.33;;
21110;SDS011;10713;51.912;4.494;2022-07-10T08:00:28;3.97;;;1.30;;
21110;SDS011;10713;51.912;4.494;2022-07-10T08:02:56;2.45;;;1.30;;
21110;SDS011;10713;51.912;4.494;2022-07-10T08:05:22;5.40;;;1.40;;
21110;SDS011;10713;51.912;4.494;2022-07-10T08:07:52;1.88;;;1.10;;
21110;SDS011;10713;51.912;4.494;2022-07-10T08:10:20;4.93;;;1.30;;
21110;SDS011;10713;51.912;4.494;2022-07-10T08:12:48;4.85;;;1.30;;
21110;SDS011;10713;51.912;4.494;2022-07-10T08:15:14;4.60;;;1.60;;
21110;SDS011;10713;51.912;4.494;2022-07-10T08:17:41;4.15;;;1.40;;
21110;SDS011;10713;51.912;4.494;2022-07-10T08:20:08;3.70;;;1.30;;
21110;SDS011;10713;51.912;4.494;2022-07-10T08:22:36;5.53;;;1.50;;
21110;SDS011;10713;51.912;4.494;2022-07-10T08:25:01;3.10;;;1.10;;
21110;SDS011;10713;51.912;4.494;2022-07-10T08:27:28;3.67;;;1.10;;
21110;SDS011;10713;51.912;4.494;2022-07-10T08:29:53;4.18;;;1.45;;
21110;SDS011;10713;51.912;4.494;2022-07-10T08:32:19;3.47;;;1.30;;
21110;SDS011;10713;51.912;4.494;2022-07-10T08:34:44;5.72;;;1.38;;
21110;SDS011;10713;51.912;4.494;2022-07-10T08:37:10;3.03;;;1.30;;
21110;SDS011;10713;51.912;4.494;2022-07-10T08:39:35;2.58;;;1.20;;
21110;SDS011;10713;51.912;4.494;2022-07-10T08:42:00;3.60;;;1.30;;
21110;SDS011;10713;51.912;4.494;2022-07-10T08:44:29;3.63;;;1.20;;
21110;SDS011;10713;51.912;4.494;2022-07-10T08:46:54;2.80;;;1.50;;
21110;SDS011;10713;51.912;4.494;2022-07-10T08:49:23;4.15;;;1.20;;
21110;SDS011;10713;51.912;4.494;2022-07-10T08:52:14;9.07;;;1.40;;
21110;SDS011;10713;51.912;4.494;2022-07-10T08:54:43;5.15;;;1.40;;
21110;SDS011;10713;51.912;4.494;2022-07-10T08:57:09;5.68;;;1.55;;
21110;SDS011;10713;51.912;4.494;2022-07-10T08:59:36;3.05;;;1.30;;
21110;SDS011;10713;51.912;4.494;2022-07-10T09:02:01;2.83;;;1.30;;
21110;SDS011;10713;51.912;4.494;2022-07-10T09:04:27;3.45;;;1.15;;
21110;SDS011;10713;51.912;4.494;2022-07-10T09:06:53;2.60;;;1.10;;
21110;SDS011;10713;51.912;4.494;2022-07-10T09:09:20;4.13;;;1.20;;
21110;SDS011;10713;51.912;4.494;2022-07-10T09:11:46;4.75;;;1.27;;
21110;SDS011;10713;51.912;4.494;2022-07-10T09:14:14;5.60;;;1.38;;
21110;SDS011;10713;51.912;4.494;2022-07-10T09:16:41;3.53;;;1.40;;
21110;SDS011;10713;51.912;4.494;2022-07-10T09:19:22;3.95;;;1.55;;
21110;SDS011;10713;51.912;4.494;2022-07-10T09:21:52;4.40;;;1.20;;
21110;SDS011;10713;51.912;4.494;2022-07-10T09:24:19;2.85;;;1.05;;
21110;SDS011;10713;51.912;4.494;2022-07-10T09:29:21;4.38;;;1.55;;
21110;SDS011;10713;51.912;4.494;2022-07-10T09:31:53;5.47;;;1.40;;
21110;SDS011;10713;51.912;4.494;2022-07-10T09:42:33;3.25;;;1.35;;
21110;SDS011;10713;51.912;4.494;2022-07-10T09:47:59;2.22;;;1.35;;
21110;SDS011;10713;51.912;4.494;2022-07-10T09:50:30;3.17;;;1.50;;
21110;SDS011;10713;51.912;4.494;2022-07-10T09:52:58;3.85;;;1.30;;
21110;SDS011;10713;51.912;4.494;2022-07-10T09:55:26;5.30;;;1.42;;
21110;SDS011;10713;51.912;4.494;2022-07-10T09:58:01;4.22;;;1.48;;
21110;SDS011;10713;51.912;4.494;2022-07-10T10:00:29;5.07;;;1.38;;
21110;SDS011;10713;51.912;4.494;2022-07-10T10:02:56;5.25;;;1.23;;
21110;SDS011;10713;51.912;4.494;2022-07-10T10:05:32;7.70;;;1.60;;
21110;SDS011;10713;51.912;4.494;2022-07-10T10:08:13;7.93;;;1.42;;
21110;SDS011;10713;51.912;4.494;2022-07-10T10:10:43;3.78;;;1.20;;
21110;SDS011;10713;51.912;4.494;2022-07-10T10:13:15;10.02;;;1.98;;
21110;SDS011;10713;51.912;4.494;2022-07-10T10:15:47;2.13;;;1.20;;
21110;SDS011;10713;51.912;4.494;2022-07-10T10:18:18;3.38;;;1.42;;
21110;SDS011;10713;51.912;4.494;2022-07-10T10:20:45;4.97;;;1.55;;
21110;SDS011;10713;51.912;4.494;2022-07-10T10:23:21;5.32;;;1.23;;
21110;SDS011;10713;51.912;4.494;2022-07-10T10:25:51;4.95;;;1.40;;
21110;SDS011;10713;51.912;4.494;2022-07-10T10:28:26;4.38;;;1.25;;
21110;SDS011;10713;51.912;4.494;2022-07-10T10:30:52;3.38;;;1.20;;
21110;SDS011;10713;51.912;4.494;2022-07-10T10:36:05;6.78;;;2.33;;
21110;SDS011;10713;51.912;4.494;2022-07-10T10:41:23;3.38;;;1.30;;
21110;SDS011;10713;51.912;4.494;2022-07-10T10:49:16;3.53;;;1.20;;
21110;SDS011;10713;51.912;4.494;2022-07-10T10:54:27;3.08;;;1.13;;
21110;SDS011;10713;51.912;4.494;2022-07-10T10:57:12;3.83;;;1.10;;
21110;SDS011;10713;51.912;4.494;2022-07-10T10:59:49;3.70;;;1.20;;
21110;SDS011;10713;51.912;4.494;2022-07-10T11:04:49;2.17;;;1.00;;
21110;SDS011;10713;51.912;4.494;2022-07-10T11:07:50;4.03;;;1.13;;
21110;SDS011;10713;51.912;4.494;2022-07-10T11:10:35;2.80;;;1.30;;
21110;SDS011;10713;51.912;4.494;2022-07-10T11:13:19;2.17;;;0.90;;
21110;SDS011;10713;51.912;4.494;2022-07-10T11:15:46;2.63;;;1.23;;
21110;SDS011;10713;51.912;4.494;2022-07-10T11:18:19;3.75;;;1.00;;
21110;SDS011;10713;51.912;4.494;2022-07-10T11:20:48;2.30;;;1.10;;
21110;SDS011;10713;51.912;4.494;2022-07-10T11:28:52;2.88;;;1.20;;
21110;SDS011;10713;51.912;4.494;2022-07-10T11:31:18;2.67;;;1.25;;
21110;SDS011;10713;51.912;4.494;2022-07-10T11:33:45;3.58;;;1.17;;
21110;SDS011;10713;51.912;4.494;2022-07-10T11:36:17;2.58;;;1.20;;
21110;SDS011;10713;51.912;4.494;2022-07-10T11:38:55;3.38;;;1.55;;
21110;SDS011;10713;51.912;4.494;2022-07-10T11:41:22;4.72;;;1.50;;
21110;SDS011;10713;51.912;4.494;2022-07-10T11:43:52;2.53;;;1.08;;
21110;SDS011;10713;51.912;4.494;2022-07-10T11:46:19;4.15;;;1.30;;
21110;SDS011;10713;51.912;4.494;2022-07-10T11:48:49;2.70;;;1.15;;
21110;SDS011;10713;51.912;4.494;2022-07-10T11:53:52;3.03;;;1.17;;
21110;SDS011;10713;51.912;4.494;2022-07-10T11:56:25;1.42;;;0.90;;
21110;SDS011;10713;51.912;4.494;2022-07-10T11:59:02;2.75;;;1.10;;
21110;SDS011;10713;51.912;4.494;2022-07-10T12:01:29;6.25;;;1.40;;
21110;SDS011;10713;51.912;4.494;2022-07-10T12:04:02;2.25;;;1.15;;
21110;SDS011;10713;51.912;4.494;2022-07-10T12:06:29;3.15;;;1.13;;
21110;SDS011;10713;51.912;4.494;2022-07-10T12:09:03;2.38;;;1.10;;
21110;SDS011;10713;51.912;4.494;2022-07-10T12:11:29;1.80;;;1.05;;
21110;SDS011;10713;51.912;4.494;2022-07-10T12:14:08;3.47;;;1.17;;
21110;SDS011;10713;51.912;4.494;2022-07-10T12:16:35;2.20;;;1.10;;
21110;SDS011;10713;51.912;4.494;2022-07-10T12:19:01;2.95;;;0.95;;
21110;SDS011;10713;51.912;4.494;2022-07-10T12:21:27;2.75;;;1.30;;
21110;SDS011;10713;51.912;4.494;2022-07-10T12:23:54;2.40;;;1.10;;
21110;SDS011;10713;51.912;4.494;2022-07-10T12:26:19;3.75;;;1.20;;
21110;SDS011;10713;51.912;4.494;2022-07-10T12:28:49;2.72;;;1.13;;
21110;SDS011;10713;51.912;4.494;2022-07-10T12:31:49;2.63;;;1.05;;
21110;SDS011;10713;51.912;4.494;2022-07-10T12:34:07;3.45;;;1.10;;
21110;SDS011;10713;51.912;4.494;2022-07-10T12:39:18;2.67;;;1.40;;
21110;SDS011;10713;51.912;4.494;2022-07-10T12:46:59;3.80;;;1.40;;
21110;SDS011;10713;51.912;4.494;2022-07-10T12:49:31;6.95;;;1.70;;
21110;SDS011;10713;51.912;4.494;2022-07-10T12:52:26;1.63;;;1.30;;
21110;SDS011;10713;51.912;4.494;2022-07-10T12:57:49;2.95;;;1.50;;
21110;SDS011;10713;51.912;4.494;2022-07-10T13:00:15;5.82;;;1.60;;
21110;SDS011;10713;51.912;4.494;2022-07-10T13:02:44;1.88;;;1.10;;
21110;SDS011;10713;51.912;4.494;2022-07-10T13:05:10;5.43;;;1.60;;
21110;SDS011;10713;51.912;4.494;2022-07-10T13:07:36;3.63;;;1.30;;
21110;SDS011;10713;51.912;4.494;2022-07-10T13:10:02;4.63;;;1.60;;
21110;SDS011;10713;51.912;4.494;2022-07-10T13:12:29;3.40;;;1.40;;
21110;SDS011;10713;51.912;4.494;2022-07-10T13:14:55;5.22;;;1.60;;
21110;SDS011;10713;51.912;4.494;2022-07-10T13:17:20;2.80;;;1.38;;
21110;SDS011;10713;51.912;4.494;2022-07-10T13:19:46;5.28;;;1.45;;
21110;SDS011;10713;51.912;4.494;2022-07-10T13:22:11;3.67;;;1.48;;
21110;SDS011;10713;51.912;4.494;2022-07-10T13:24:37;3.25;;;1.40;;
21110;SDS011;10713;51.912;4.494;2022-07-10T13:27:02;4.45;;;1.30;;
21110;SDS011;10713;51.912;4.494;2022-07-10T13:29:28;3.60;;;1.38;;
21110;SDS011;10713;51.912;4.494;2022-07-10T13:31:54;4.07;;;1.45;;
21110;SDS011;10713;51.912;4.494;2022-07-10T13:34:19;2.92;;;1.60;;
21110;SDS011;10713;51.912;4.494;2022-07-10T13:36:45;5.03;;;1.80;;
21110;SDS011;10713;51.912;4.494;2022-07-10T13:39:11;8.48;;;2.53;;
21110;SDS011;10713;51.912;4.494;2022-07-10T13:41:37;3.70;;;1.55;;
21110;SDS011;10713;51.912;4.494;2022-07-10T13:44:02;8.43;;;1.90;;
21110;SDS011;10713;51.912;4.494;2022-07-10T13:46:28;4.03;;;1.90;;
21110;SDS011;10713;51.912;4.494;2022-07-10T13:48:53;3.97;;;2.10;;
21110;SDS011;10713;51.912;4.494;2022-07-10T13:51:18;4.22;;;1.27;;
21110;SDS011;10713;51.912;4.494;2022-07-10T13:53:44;3.67;;;1.65;;
21110;SDS011;10713;51.912;4.494;2022-07-10T13:56:09;4.50;;;1.60;;
21110;SDS011;10713;51.912;4.494;2022-07-10T13:58:35;4.68;;;1.40;;
21110;SDS011;10713;51.912;4.494;2022-07-10T14:01:01;3.17;;;1.70;;
21110;SDS011;10713;51.912;4.494;2022-07-10T14:03:29;3.75;;;1.65;;
21110;SDS011;10713;51.912;4.494;2022-07-10T14:05:55;3.38;;;1.40;;
21110;SDS011;10713;51.912;4.494;2022-07-10T14:08:21;3.60;;;1.65;;
21110;SDS011;10713;51.912;4.494;2022-07-10T14:10:46;5.80;;;1.65;;
21110;SDS011;10713;51.912;4.494;2022-07-10T14:13:12;3.13;;;1.80;;
21110;SDS011;10713;51.912;4.494;2022-07-10T14:15:37;4.38;;;1.50;;
21110;SDS011;10713;51.912;4.494;2022-07-10T14:18:03;4.95;;;2.00;;
21110;SDS011;10713;51.912;4.494;2022-07-10T14:20:29;5.95;;;1.73;;
21110;SDS011;10713;51.912;4.494;2022-07-10T14:23:16;3.38;;;1.63;;
21110;SDS011;10713;51.912;4.494;2022-07-10T14:25:43;3.72;;;1.63;;
21110;SDS011;10713;51.912;4.494;2022-07-10T14:28:08;4.40;;;1.92;;
21110;SDS011;10713;51.912;4.494;2022-07-10T14:30:33;3.65;;;1.92;;
21110;SDS011;10713;51.912;4.494;2022-07-10T14:32:59;4.10;;;1.73;;
21110;SDS011;10713;51.912;4.494;2022-07-10T14:35:24;4.25;;;1.58;;
21110;SDS011;10713;51.912;4.494;2022-07-10T14:37:49;3.33;;;1.80;;
21110;SDS011;10713;51.912;4.494;2022-07-10T14:40:15;5.07;;;1.75;;
21110;SDS011;10713;51.912;4.494;2022-07-10T14:42:40;4.22;;;1.65;;
21110;SDS011;10713;51.912;4.494;2022-07-10T14:45:06;4.40;;;1.70;;
21110;SDS011;10713;51.912;4.494;2022-07-10T14:47:31;7.00;;;2.08;;
21110;SDS011;10713;51.912;4.494;2022-07-10T14:49:58;5.25;;;2.10;;
21110;SDS011;10713;51.912;4.494;2022-07-10T14:52:23;5.40;;;2.30;;
21110;SDS011;10713;51.912;4.494;2022-07-10T14:54:50;3.28;;;1.80;;
21110;SDS011;10713;51.912;4.494;2022-07-10T14:57:16;11.07;;;2.83;;
21110;SDS011;10713;51.912;4.494;2022-07-10T14:59:41;3.70;;;2.20;;
21110;SDS011;10713;51.912;4.494;2022-07-10T15:02:06;4.32;;;2.25;;
21110;SDS011;10713;51.912;4.494;2022-07-10T15:04:32;4.93;;;2.20;;
21110;SDS011;10713;51.912;4.494;2022-07-10T15:06:57;4.72;;;1.90;;
21110;SDS011;10713;51.912;4.494;2022-07-10T15:09:22;4.88;;;2.13;;
21110;SDS011;10713;51.912;4.494;2022-07-10T15:11:48;5.72;;;2.15;;
21110;SDS011;10713;51.912;4.494;2022-07-10T15:14:13;3.95;;;2.25;;
21110;SDS011;10713;51.912;4.494;2022-07-10T15:16:39;4.63;;;1.90;;
21110;SDS011;10713;51.912;4.494;2022-07-10T15:19:04;4.43;;;2.10;;
21110;SDS011;10713;51.912;4.494;2022-07-10T15:21:30;8.15;;;2.10;;
21110;SDS011;10713;51.912;4.494;2022-07-10T15:23:55;6.88;;;2.30;;
21110;SDS011;10713;51.912;4.494;2022-07-10T15:26:21;4.78;;;2.20;;
21110;SDS011;10713;51.912;4.494;2022-07-10T15:28:46;4.60;;;1.75;;
21110;SDS011;10713;51.912;4.494;2022-07-10T15:31:12;6.75;;;2.10;;
21110;SDS011;10713;51.912;4.494;2022-07-10T15:33:37;4.43;;;1.92;;
21110;SDS011;10713;51.912;4.494;2022-07-10T15:36:08;2.92;;;1.90;;
21110;SDS011;10713;51.912;4.494;2022-07-10T15:38:34;3.83;;;2.38;;